Washington, DC

11:56 PM EST on December 21, 2014 (GMT -0500)
Eckington Pl, NE | Change Station
CLOSE
Current Station
Personal Weather Station
Location: Washington, DC
Elevation: 90 ft
Nearby Weather Stations

Elev 90 ft 38.91 °N, 77.01 °W | Updated 2 minutes ago

Partly Cloudy
Partly Cloudy
32.6 °F
Feels Like 33 °F
N
3.0
Wind Variable Wind from North
Gusts 6.0 mph

Today
High -- | Low -- °F
--% Chance of Precip.
Yesterday
High -- | Low -- °F
Precip. -- in
7:23 AM 4:49 PM
New Moon, 0% visible
Pressure 30.36 in
Visibility 9.0 miles
Clouds Mostly Cloudy 25000 ft
Windchill 33 °F
Dew Point 25 °F
Humidity 74%
Rainfall -999.00 in
Snow Depth Not available.
UV 0 out of 12
Pollen .10 out of 12
Air Quality Not available.
Flu Activity Not available.
METAR KDCA 220352Z 05005KT 9SM BKN250 02/M04 A3036 RMK AO2 SLP279 T00221039

More Conditions Fewer Conditions

Pressure 30.36 in
Visibility 9.0 miles
Clouds Mostly Cloudy 25000 ft
Windchill 33 °F
Dew Point 25 °F
Humidity 74%
Rainfall -999.00 in
Snow Depth Not available.
UV 0 out of 12
Pollen .10 out of 12
Air Quality Not available.
Flu Activity Not available.
METAR KDCA 220352Z 05005KT 9SM BKN250 02/M04 A3036 RMK AO2 SLP279 T00221039

More Conditions Fewer Conditions

10-Day Weather Forecast

Almanac

Astronomy

Dec. 21, 2014 Rise Set
Actual Time
Civil Twilight
Nautical Twilight
Astronomical Twilight
Moon
Length of Visible Light
Length of Day
Tomorrow will be .
, % of the Moon is Illuminated

Today's Extremes

State Highs State Lows

Community

WunderPhotos

Upload Photos

1,779,540 photos uploaded!

WunderBlogs® & News

Nearby

Air Quality

  Air Quality AQ Index Pollutant
Not available.

Snow Depth

Station Depth Elevation

Earthquake Activity

City Distance Mag. Time & Date
Minimum magnitude displayed is 2.5.

Coastal Water Temperatures

Place Temperature

Nearby Weather Stations